Aérodrome :
LOGIN :

S'inscrire | Disclaimer

   EN    FR    IT 

 










Légende :    VFR   VFR Marginal   IFR   IFR Intensif   IFR Très Intensif
Visi : 
Plafond : 
>= 8 km
>= 3000ft
5 à 8 km
1000 à 3000 ft
1500m à 5 km
500 à 1000 ft
800 à 1500m
200 à 500 ft
< 800m
< 200 ft
Symboles :   Orages  Brouillard  Fortes neiges  Fortes précipitations  Vent > 20 kt
SIGMETs :   Divers  Orages  Givrage  Turbulence  Onde Orograph.  Cendres Volcan.







- Altitude de l'aérodrome : 233 ft
- Code IATA : REU


LERS - Reus Tarragona

DERNIER METAR :
  • 280800Z VRB01KT 9999 FEW020 12/03 Q1018

METARs EXPIRÉS :
  • 280730Z VRB01KT 9999 FEW020 10/03 Q1018
  • 280700Z VRB02KT 9999 FEW020 08/02 Q1018
  • 280630Z 00000KT 9999 FEW020 07/03 Q1018
  • 280600Z VRB02KT 9999 FEW020 05/02 Q1018
  • 280530Z VRB01KT 9999 FEW020 05/01 Q1017

TAF TAF LERS
Valide du 28 à 03h jusqu'au 29 à 03h UTC


280200Z 2803/2903 VRB04KT 9999 SCT020 TX18/2812Z TN05/2806Z
TEMPO 2811/2816 16010KT
Pas de NOTAMs connus pour ce terrain.



MET'MAP, la Météo Aéronautique d'un coup d'oeil ! - Copyright ORBIFLY Décembre 2007 - Disclaimer

ORBIFLY MET'MAP TEAM :

Programmation & Développement : Alexandra Zaïnal
Conception & Développement : Baudouin d'Aumeries
Co-Programmation & Développement : Marc-Olivier Méhu
Soutien technique & logistique : Manuel Goepfert

Contact : metmap@orbifly.com




SOURCES & CREDITS :

   NOAA